createdAt,value
2023-03-20T00:01:30.199Z,29.65
2023-03-20T00:03:58.471Z,24.33
2023-03-20T00:06:28.935Z,30.02
2023-03-20T00:08:57.667Z,26.83
2023-03-20T00:11:30.868Z,24.65
2023-03-20T00:14:03.803Z,29.95
2023-03-20T00:19:16.553Z,27.38
2023-03-20T00:21:46.636Z,32.47
2023-03-20T00:24:14.933Z,31.70
2023-03-20T00:26:43.400Z,30.20
2023-03-20T00:29:19.342Z,35.60
2023-03-20T00:31:46.890Z,34.47
2023-03-20T00:34:17.353Z,32.75
2023-03-20T00:36:44.683Z,35.38
2023-03-20T00:39:12.020Z,32.53
2023-03-20T00:41:39.317Z,34.85
2023-03-20T00:44:28.350Z,40.25
2023-03-20T00:46:58.528Z,42.00
2023-03-20T00:49:35.799Z,38.70
2023-03-20T00:52:06.289Z,40.10
2023-03-20T00:54:33.640Z,39.90
2023-03-20T00:57:07.090Z,40.53
2023-03-20T00:59:38.896Z,37.17
2023-03-20T01:02:06.745Z,41.95
2023-03-20T01:04:42.316Z,41.67
2023-03-20T01:07:14.085Z,43.13
2023-03-20T01:09:41.809Z,40.95
2023-03-20T01:12:11.879Z,45.70
2023-03-20T01:14:39.233Z,50.30
2023-03-20T01:17:11.953Z,48.67
2023-03-20T01:19:40.750Z,52.60
2023-03-20T01:22:08.090Z,40.25
2023-03-20T01:24:35.370Z,41.80
2023-03-20T01:27:05.481Z,43.67
2023-03-20T01:29:32.805Z,40.97
2023-03-20T01:32:00.467Z,42.72
2023-03-20T01:34:27.864Z,43.60
2023-03-20T01:36:57.671Z,41.47
2023-03-20T01:39:33.120Z,40.42
2023-03-20T01:42:01.264Z,38.78
2023-03-20T01:44:34.306Z,41.05
2023-03-20T01:49:29.252Z,42.90
2023-03-20T01:51:57.679Z,38.65
2023-03-20T01:54:27.561Z,43.75
2023-03-20T01:57:04.679Z,44.15
2023-03-20T01:59:47.981Z,37.30
2023-03-20T02:02:18.051Z,39.28
2023-03-20T02:04:48.186Z,44.80
2023-03-20T02:07:18.040Z,37.63
2023-03-20T02:09:46.635Z,39.20
2023-03-20T02:12:14.480Z,39.65
2023-03-20T02:14:42.065Z,38.97
2023-03-20T02:17:10.704Z,36.03
2023-03-20T02:19:44.115Z,35.17
2023-03-20T02:22:49.462Z,36.33
2023-03-20T02:25:30.000Z,34.95
2023-03-20T02:28:09.545Z,38.22
2023-03-20T02:31:05.354Z,38.42
2023-03-20T02:33:51.477Z,35.92
2023-03-20T02:36:28.200Z,34.75
2023-03-20T02:39:08.055Z,33.65
2023-03-20T02:41:45.132Z,32.25
2023-03-20T02:44:31.366Z,30.33
2023-03-20T02:47:23.644Z,33.67
2023-03-20T02:50:13.439Z,35.63
2023-03-20T02:53:06.695Z,28.27
2023-03-20T02:55:41.864Z,31.83
2023-03-20T02:58:16.795Z,36.53
2023-03-20T03:00:58.166Z,32.35
2023-03-20T03:03:38.555Z,33.58
2023-03-20T03:06:15.943Z,33.97
2023-03-20T03:08:47.995Z,34.17
2023-03-20T03:11:15.467Z,33.93
2023-03-20T03:13:56.075Z,32.20
2023-03-20T03:16:37.583Z,30.27
2023-03-20T03:19:09.807Z,34.53
2023-03-20T03:21:39.640Z,32.60
2023-03-20T03:24:19.849Z,32.95
2023-03-20T03:26:49.262Z,34.45
2023-03-20T03:29:18.021Z,38.20
2023-03-20T03:31:46.610Z,29.20
2023-03-20T03:34:16.423Z,28.75
2023-03-20T03:36:51.902Z,33.85
2023-03-20T03:39:25.145Z,33.45
2023-03-20T03:42:11.492Z,33.83
2023-03-20T03:44:50.325Z,29.95
2023-03-20T03:47:43.518Z,36.60
2023-03-20T03:50:38.782Z,33.20
2023-03-20T03:53:10.471Z,37.30
2023-03-20T03:55:42.298Z,34.97
2023-03-20T03:58:21.556Z,37.10
2023-03-20T04:00:52.015Z,42.05
2023-03-20T04:03:23.826Z,33.95
2023-03-20T04:05:52.275Z,39.17
2023-03-20T04:08:19.658Z,34.70
2023-03-20T04:10:47.018Z,36.60
2023-03-20T04:13:14.394Z,41.97
2023-03-20T04:15:42.494Z,38.22
2023-03-20T04:18:16.702Z,34.85
2023-03-20T04:20:45.374Z,38.42
2023-03-20T04:23:13.009Z,43.03
2023-03-20T04:25:40.504Z,39.33
2023-03-20T04:28:07.867Z,41.90
2023-03-20T04:30:35.416Z,35.67
2023-03-20T04:33:02.946Z,35.40
2023-03-20T04:35:30.576Z,33.80
2023-03-20T04:37:57.877Z,43.92
2023-03-20T04:40:25.202Z,39.45
2023-03-20T04:42:52.643Z,35.88
2023-03-20T04:45:20.526Z,35.13
2023-03-20T04:47:47.813Z,36.67
2023-03-20T04:50:15.438Z,35.28
2023-03-20T04:52:42.894Z,33.72
2023-03-20T04:55:10.652Z,42.53
2023-03-20T04:57:37.985Z,39.72
2023-03-20T05:00:05.926Z,36.40
2023-03-20T05:02:33.493Z,29.95
2023-03-20T05:05:00.810Z,36.33
2023-03-20T05:07:28.063Z,40.78
2023-03-20T05:09:55.491Z,36.10
2023-03-20T05:12:22.969Z,34.15
2023-03-20T05:14:50.559Z,33.47
2023-03-20T05:17:19.732Z,36.40
2023-03-20T05:19:47.615Z,37.03
2023-03-20T05:22:15.055Z,37.63
2023-03-20T05:24:42.333Z,35.15
2023-03-20T05:27:09.846Z,35.88
2023-03-20T05:29:37.431Z,38.00
2023-03-20T05:32:05.608Z,34.47
2023-03-20T05:34:32.995Z,35.72
2023-03-20T05:37:00.657Z,40.60
2023-03-20T05:39:27.945Z,32.00
2023-03-20T05:41:58.361Z,32.28
2023-03-20T05:44:25.627Z,35.85
2023-03-20T05:46:52.887Z,38.45
2023-03-20T05:49:20.270Z,32.42
2023-03-20T05:51:47.649Z,35.25
2023-03-20T05:54:14.959Z,33.80
2023-03-20T05:56:42.290Z,29.45
2023-03-20T05:59:09.695Z,34.40
2023-03-20T06:01:39.761Z,30.20
2023-03-20T06:04:08.528Z,38.67
2023-03-20T06:06:38.460Z,33.70
2023-03-20T06:09:07.397Z,28.67
2023-03-20T06:11:37.349Z,35.78
2023-03-20T06:14:05.003Z,26.17
2023-03-20T06:16:32.471Z,28.05
2023-03-20T06:18:59.826Z,31.77
2023-03-20T06:21:27.506Z,32.30
2023-03-20T06:23:54.836Z,31.05
2023-03-20T06:26:25.718Z,33.08
2023-03-20T06:28:53.132Z,23.92
2023-03-20T06:31:20.777Z,28.13
2023-03-20T06:33:48.847Z,34.65
2023-03-20T06:36:18.717Z,30.77
2023-03-20T06:39:04.266Z,31.20
2023-03-20T06:41:34.719Z,31.80
2023-03-20T06:44:03.549Z,30.35
2023-03-20T06:46:31.566Z,24.08
2023-03-20T06:48:59.438Z,22.70
2023-03-20T06:51:28.907Z,29.00
2023-03-20T06:53:56.302Z,29.83
2023-03-20T06:56:34.068Z,25.77
2023-03-20T06:59:01.674Z,31.63
2023-03-20T07:01:29.536Z,23.25
2023-03-20T07:04:00.779Z,27.38
2023-03-20T07:06:28.157Z,29.45
2023-03-20T07:08:55.578Z,23.77
2023-03-20T07:11:23.184Z,27.75
2023-03-20T07:13:50.917Z,19.83
2023-03-20T07:16:18.325Z,28.55
2023-03-20T07:18:45.757Z,25.48
2023-03-20T07:21:17.787Z,30.63
2023-03-20T07:23:45.334Z,24.93
2023-03-20T07:26:13.054Z,32.45
2023-03-20T07:28:40.381Z,26.65
2023-03-20T07:31:07.888Z,26.45
2023-03-20T07:33:35.239Z,24.15
2023-03-20T07:36:02.655Z,32.83
2023-03-20T07:38:32.804Z,30.50
2023-03-20T07:41:00.421Z,30.20
2023-03-20T07:43:27.743Z,32.63
2023-03-20T07:45:55.027Z,29.98
2023-03-20T07:48:22.535Z,32.33
2023-03-20T07:50:49.820Z,31.75
2023-03-20T07:53:17.197Z,31.85
2023-03-20T07:55:45.562Z,30.90
2023-03-20T07:58:12.967Z,30.42
2023-03-20T08:00:40.662Z,30.35
2023-03-20T08:03:08.084Z,32.78
2023-03-20T08:05:35.860Z,30.38
2023-03-20T08:08:03.848Z,28.88
2023-03-20T08:10:31.701Z,34.05
2023-03-20T08:12:59.036Z,40.58
2023-03-20T08:15:26.399Z,37.53
2023-03-20T08:17:53.726Z,31.55
2023-03-20T08:20:21.878Z,31.35
2023-03-20T08:22:49.747Z,33.45
2023-03-20T08:25:17.253Z,30.55
2023-03-20T08:27:45.038Z,32.38
2023-03-20T08:30:14.082Z,33.13
2023-03-20T08:32:41.828Z,28.75
2023-03-20T08:35:22.067Z,26.33
2023-03-20T08:37:58.372Z,24.75
2023-03-20T08:40:25.906Z,27.77
2023-03-20T08:42:53.300Z,25.45
2023-03-20T08:45:20.921Z,30.50
2023-03-20T08:47:49.075Z,26.40
2023-03-20T08:50:16.690Z,34.30
2023-03-20T08:52:44.393Z,24.25
2023-03-20T08:55:13.058Z,25.50
2023-03-20T08:57:41.261Z,29.88
2023-03-20T09:00:10.616Z,31.98
2023-03-20T09:02:38.070Z,27.77
2023-03-20T09:05:06.109Z,30.75
2023-03-20T09:07:33.586Z,29.33
2023-03-20T09:10:01.230Z,39.00
2023-03-20T09:12:28.782Z,31.75
2023-03-20T09:14:56.334Z,34.25
2023-03-20T09:17:23.739Z,34.65
2023-03-20T09:19:51.038Z,40.53
2023-03-20T09:22:18.299Z,39.15
2023-03-20T09:24:46.575Z,34.55
2023-03-20T09:27:14.077Z,37.55
2023-03-20T09:29:42.573Z,39.15
2023-03-20T09:32:17.153Z,38.00
2023-03-20T09:34:44.510Z,41.63
2023-03-20T09:37:11.828Z,42.03
2023-03-20T09:39:39.224Z,34.65
2023-03-20T09:42:44.073Z,33.13
2023-03-20T09:45:17.325Z,38.15
2023-03-20T09:48:07.789Z,36.60
2023-03-20T09:50:56.024Z,29.90
2023-03-20T09:53:32.869Z,30.45
2023-03-20T09:56:00.758Z,36.92
2023-03-20T09:58:35.345Z,35.47
2023-03-20T10:01:04.843Z,35.78
2023-03-20T10:03:49.098Z,33.83
2023-03-20T10:06:18.033Z,34.30
2023-03-20T10:08:46.603Z,36.25
2023-03-20T10:11:35.211Z,42.30
2023-03-20T10:14:18.715Z,36.75
2023-03-20T10:17:00.466Z,38.20
2023-03-20T10:19:33.838Z,37.13
2023-03-20T10:22:29.379Z,39.25
2023-03-20T10:25:04.415Z,35.38
2023-03-20T10:27:38.195Z,36.15
2023-03-20T10:30:40.768Z,40.03
2023-03-20T10:33:26.730Z,42.60
2023-03-20T10:35:56.983Z,38.42
2023-03-20T10:38:45.518Z,37.03
2023-03-20T10:41:25.628Z,34.75
2023-03-20T10:43:53.706Z,38.97
2023-03-20T10:46:27.799Z,39.63
2023-03-20T10:53:42.526Z,35.22
2023-03-20T10:56:16.823Z,36.15
2023-03-20T10:58:47.359Z,43.55
2023-03-20T11:01:16.230Z,31.55
2023-03-20T11:03:48.065Z,41.30
2023-03-20T11:06:28.883Z,37.67
2023-03-20T11:08:56.423Z,48.47
2023-03-20T11:11:25.915Z,42.75
2023-03-20T11:13:53.933Z,41.20
2023-03-20T11:16:30.228Z,38.85
2023-03-20T11:19:08.775Z,40.78
2023-03-20T11:21:45.401Z,30.75
2023-03-20T11:24:33.342Z,33.97
2023-03-20T11:27:18.742Z,33.95
2023-03-20T11:29:50.659Z,30.63
2023-03-20T11:32:33.421Z,28.45
2023-03-20T11:35:34.714Z,32.60
2023-03-20T11:38:17.290Z,25.92
2023-03-20T11:40:44.690Z,31.20
2023-03-20T11:43:14.402Z,28.45
2023-03-20T11:45:47.340Z,28.73
2023-03-20T11:50:51.994Z,31.95
2023-03-20T11:53:48.237Z,29.02
2023-03-20T11:56:23.889Z,27.13
2023-03-20T11:59:00.116Z,26.67
2023-03-20T12:01:28.394Z,30.98
2023-03-20T12:04:01.547Z,34.03
2023-03-20T12:06:56.703Z,34.03
2023-03-20T12:09:32.277Z,35.28
2023-03-20T12:12:32.008Z,30.58
2023-03-20T12:15:02.143Z,30.85
2023-03-20T12:17:38.615Z,30.60
2023-03-20T12:20:21.474Z,35.38
2023-03-20T12:23:00.772Z,25.95
2023-03-20T12:25:33.967Z,39.22
2023-03-20T12:28:21.697Z,34.88
2023-03-20T12:31:07.984Z,33.72
2023-03-20T12:34:01.588Z,36.95
2023-03-20T12:36:36.565Z,27.50
2023-03-20T12:39:06.867Z,34.85
2023-03-20T12:41:55.173Z,34.30
2023-03-20T12:44:36.247Z,34.63
2023-03-20T12:47:29.823Z,43.20
2023-03-20T12:50:25.010Z,34.95
2023-03-20T12:53:20.211Z,38.80
2023-03-20T12:56:06.258Z,39.13
2023-03-20T12:58:51.251Z,41.60
2023-03-20T13:01:26.523Z,35.03
2023-03-20T13:04:06.195Z,40.58
2023-03-20T13:06:53.000Z,39.67
2023-03-20T13:09:35.014Z,44.55
2023-03-20T13:12:24.598Z,35.03
2023-03-20T13:15:29.238Z,35.40
2023-03-20T13:18:14.769Z,35.78
2023-03-20T13:20:52.698Z,35.60
2023-03-20T13:23:32.249Z,44.20
2023-03-20T13:26:06.485Z,43.75
2023-03-20T13:28:40.352Z,43.78
2023-03-20T13:31:25.347Z,46.28
2023-03-20T13:34:14.630Z,48.85
2023-03-20T13:37:22.311Z,50.17
2023-03-20T13:40:31.728Z,56.25
2023-03-20T13:43:20.774Z,55.72
2023-03-20T13:45:51.525Z,52.97
2023-03-20T13:48:26.971Z,47.13
2023-03-20T13:51:02.761Z,44.97
2023-03-20T13:53:55.643Z,54.97
2023-03-20T13:56:41.747Z,53.15
2023-03-20T13:59:34.002Z,56.58
2023-03-20T14:02:46.406Z,51.85
2023-03-20T14:05:22.509Z,45.08
2023-03-20T14:07:55.544Z,52.13
2023-03-20T14:10:23.487Z,50.97
2023-03-20T14:13:03.959Z,63.97
2023-03-20T14:15:38.848Z,60.30
2023-03-20T14:18:18.622Z,60.65
2023-03-20T14:21:00.735Z,61.10
2023-03-20T14:23:36.112Z,55.90
2023-03-20T14:26:10.207Z,55.80
2023-03-20T14:29:09.453Z,49.38
2023-03-20T14:31:42.413Z,50.65
2023-03-20T14:34:20.412Z,57.97
2023-03-20T14:37:04.640Z,51.33
2023-03-20T14:39:51.366Z,54.95
2023-03-20T14:42:40.118Z,54.58
2023-03-20T14:45:13.859Z,46.40
2023-03-20T14:47:50.305Z,47.88
2023-03-20T14:50:52.147Z,52.55
2023-03-20T14:53:21.500Z,55.72
2023-03-20T14:55:57.933Z,51.47
2023-03-20T14:58:53.561Z,46.88
2023-03-20T15:01:21.785Z,49.30
2023-03-20T15:03:57.044Z,46.70
2023-03-20T15:06:26.714Z,48.42
2023-03-20T15:09:14.341Z,40.00
2023-03-20T15:11:43.328Z,48.35
2023-03-20T15:14:11.302Z,48.90
2023-03-20T15:16:38.932Z,48.70
2023-03-20T15:19:18.785Z,41.80
2023-03-20T15:21:48.118Z,44.30
2023-03-20T15:24:23.440Z,48.13
2023-03-20T15:26:59.834Z,38.25
2023-03-20T15:29:27.826Z,41.25
2023-03-20T15:32:13.436Z,36.90
2023-03-20T15:34:42.940Z,34.50
2023-03-20T15:37:15.578Z,39.60
2023-03-20T15:39:45.813Z,40.22
2023-03-20T15:42:16.152Z,40.22
2023-03-20T15:44:48.098Z,45.58
2023-03-20T15:47:29.215Z,36.75
2023-03-20T15:50:02.510Z,42.25
2023-03-20T15:52:44.689Z,36.67
2023-03-20T15:55:20.039Z,36.33
2023-03-20T15:57:50.309Z,36.10
2023-03-20T16:00:35.103Z,34.40
2023-03-20T16:03:05.588Z,45.95
2023-03-20T16:05:33.354Z,40.47
2023-03-20T16:08:14.130Z,39.15
2023-03-20T16:10:43.234Z,39.75
2023-03-20T16:13:14.175Z,47.83
2023-03-20T16:15:41.644Z,47.00
2023-03-20T16:18:10.956Z,41.55
2023-03-20T16:20:42.352Z,44.95
2023-03-20T16:23:10.274Z,44.25
2023-03-20T16:25:38.211Z,52.72
2023-03-20T16:28:09.226Z,45.22
2023-03-20T16:30:37.387Z,42.28
2023-03-20T16:33:13.107Z,55.95
2023-03-20T16:35:43.486Z,49.83
2023-03-20T16:38:27.679Z,51.20
2023-03-20T16:40:58.937Z,50.47
2023-03-20T16:43:32.897Z,46.20
2023-03-20T16:46:06.501Z,49.50
2023-03-20T16:48:39.152Z,58.30
2023-03-20T16:51:27.847Z,55.67
2023-03-20T16:53:57.672Z,49.90
2023-03-20T16:56:33.828Z,57.90
2023-03-20T16:59:08.843Z,51.45
2023-03-20T17:01:37.732Z,57.72
2023-03-20T17:04:18.694Z,63.13
2023-03-20T17:07:16.296Z,57.35
2023-03-20T17:10:00.937Z,59.53
2023-03-20T17:12:32.747Z,55.65
2023-03-20T17:15:00.205Z,55.70
2023-03-20T17:17:28.539Z,49.10
2023-03-20T17:19:56.161Z,52.20
2023-03-20T17:22:25.670Z,56.47
2023-03-20T17:24:53.496Z,55.30
2023-03-20T17:27:21.444Z,59.65
2023-03-20T17:29:52.818Z,55.28
2023-03-20T17:32:42.514Z,50.33
2023-03-20T17:35:12.512Z,64.78
2023-03-20T17:37:40.421Z,44.55
2023-03-20T17:40:11.420Z,45.70
2023-03-20T17:42:39.940Z,51.17
2023-03-20T17:45:10.254Z,47.45
2023-03-20T17:47:38.707Z,48.42
2023-03-20T17:50:10.456Z,51.22
2023-03-20T17:52:47.040Z,54.83
2023-03-20T17:55:16.906Z,45.75
2023-03-20T17:57:48.085Z,52.22
2023-03-20T18:00:36.726Z,40.55
2023-03-20T18:03:04.236Z,44.33
2023-03-20T18:05:33.709Z,37.83
2023-03-20T18:08:01.190Z,39.65
2023-03-20T18:10:32.371Z,45.28
2023-03-20T18:13:00.791Z,51.47
2023-03-20T18:15:28.238Z,52.58
2023-03-20T18:17:55.660Z,37.75
2023-03-20T18:20:27.642Z,47.58
2023-03-20T18:22:55.509Z,36.67
2023-03-20T18:25:25.863Z,44.20
2023-03-20T18:27:54.448Z,41.25
2023-03-20T18:30:24.875Z,44.03
2023-03-20T18:32:52.252Z,31.33
2023-03-20T18:35:19.784Z,35.80
2023-03-20T18:37:47.151Z,31.08
2023-03-20T18:40:26.380Z,36.83
2023-03-20T18:42:55.030Z,40.60
2023-03-20T18:45:23.208Z,39.42
2023-03-20T18:47:51.095Z,33.03
2023-03-20T18:50:36.923Z,37.92
2023-03-20T18:53:05.960Z,32.58
2023-03-20T18:55:38.190Z,39.75
2023-03-20T18:58:06.407Z,38.00
2023-03-20T19:00:41.781Z,41.00
2023-03-20T19:03:11.025Z,34.05
2023-03-20T19:05:49.824Z,39.35
2023-03-20T19:08:17.152Z,49.00
2023-03-20T19:10:45.458Z,47.22
2023-03-20T19:13:18.354Z,38.60
2023-03-20T19:18:20.282Z,38.90
2023-03-20T19:20:56.031Z,41.28
2023-03-20T19:23:25.280Z,44.40
2023-03-20T19:25:54.425Z,40.85
2023-03-20T19:28:44.119Z,45.38
2023-03-20T19:31:12.597Z,46.97
2023-03-20T19:33:43.065Z,41.33
2023-03-20T19:36:38.626Z,50.45
2023-03-20T19:39:09.102Z,43.33
2023-03-20T19:41:36.643Z,43.90
2023-03-20T19:44:06.393Z,45.60
2023-03-20T19:46:42.401Z,45.90
2023-03-20T19:49:18.847Z,43.30
2023-03-20T19:51:46.932Z,42.90
2023-03-20T19:54:14.536Z,41.25
2023-03-20T19:56:41.883Z,44.80
2023-03-20T19:59:09.224Z,41.25
2023-03-20T20:01:36.630Z,39.30
2023-03-20T20:04:04.236Z,41.20
2023-03-20T20:06:33.137Z,38.70
2023-03-20T20:09:01.579Z,35.33
2023-03-20T20:11:29.165Z,31.63
2023-03-20T20:16:45.621Z,32.72
2023-03-20T20:19:13.150Z,36.90
2023-03-20T20:24:28.344Z,35.85
2023-03-20T20:27:15.295Z,37.63
2023-03-20T20:29:46.048Z,35.58
2023-03-20T20:32:13.799Z,37.10
2023-03-20T20:38:25.075Z,34.63
2023-03-20T20:40:19.755Z,37.95
2023-03-20T20:42:49.464Z,34.03
2023-03-20T20:45:17.313Z,43.05
2023-03-20T20:47:47.256Z,40.55
2023-03-20T20:50:16.694Z,37.22
2023-03-20T20:52:44.712Z,41.35
2023-03-20T20:55:22.894Z,41.10
2023-03-20T20:57:55.854Z,45.45
2023-03-20T21:00:37.132Z,38.08
2023-03-20T21:03:12.910Z,40.50
2023-03-20T21:05:42.978Z,39.08
2023-03-20T21:08:12.104Z,36.95
2023-03-20T21:10:40.118Z,37.28
2023-03-20T21:13:09.287Z,40.05
2023-03-20T21:15:37.371Z,39.10
2023-03-20T21:18:05.299Z,40.33
2023-03-20T21:20:40.091Z,37.13
2023-03-20T21:23:07.415Z,42.47
2023-03-20T21:25:45.455Z,36.55
2023-03-20T21:28:16.511Z,34.08
2023-03-20T21:31:12.487Z,41.45
2023-03-20T21:33:35.985Z,46.05
2023-03-20T21:36:04.248Z,40.42
2023-03-20T21:39:14.969Z,44.63
2023-03-20T21:41:21.534Z,40.38
2023-03-20T21:43:49.847Z,39.70
2023-03-20T21:58:18.409Z,42.10
2023-03-20T22:03:12.446Z,38.80
2023-03-20T22:12:01.659Z,48.08
2023-03-20T22:14:54.015Z,44.17
2023-03-20T22:17:41.487Z,47.53
2023-03-20T22:20:38.558Z,48.58
2023-03-20T22:29:09.721Z,46.85
2023-03-20T22:31:48.547Z,52.28
2023-03-20T22:45:02.038Z,44.05
2023-03-20T22:47:30.776Z,38.55
2023-03-20T22:49:58.349Z,35.80
2023-03-20T22:52:37.911Z,39.50
2023-03-20T22:55:09.877Z,40.58
2023-03-20T22:57:45.606Z,42.55
2023-03-20T23:00:20.994Z,36.38
2023-03-20T23:02:48.452Z,36.33
2023-03-20T23:05:15.898Z,35.60
2023-03-20T23:07:44.436Z,35.13
2023-03-20T23:10:13.256Z,33.03
2023-03-20T23:12:44.023Z,30.92
2023-03-20T23:15:11.770Z,30.20
2023-03-20T23:17:39.206Z,27.45
2023-03-20T23:20:12.097Z,30.40
2023-03-20T23:22:41.737Z,23.83
2023-03-20T23:25:20.716Z,27.35
2023-03-20T23:27:51.404Z,30.25
2023-03-20T23:30:19.833Z,28.80
2023-03-20T23:32:48.285Z,31.08
2023-03-20T23:35:15.740Z,32.45
2023-03-20T23:37:43.045Z,30.35
2023-03-20T23:40:11.099Z,31.92
2023-03-20T23:42:38.371Z,32.97
2023-03-20T23:45:17.568Z,31.95
2023-03-20T23:47:48.327Z,36.10
2023-03-20T23:50:28.525Z,33.40
2023-03-20T23:53:06.697Z,36.28
2023-03-20T23:55:45.928Z,34.83
2023-03-20T23:58:14.038Z,35.90
